SBMN/MAO METAR and TAF weather

Enter ICAO airport designator
Station Type Date Time Source
SBMN METAR 2021/02/24 18:00 UTC NOAA

SBMN 241800Z 04004KT 9999 VCSH BKN018 FEW025TCU 30/24 Q1010


Station Type Date Time Source
SBMN Decoded METAR 2021/02/24 18:00 UTC NOAA

Manaus Aeroporto , Brazil (SBMN) 03-09S 059-59W 84M
Feb 24, 2021 - 01:00 PM EST / 2021.02.24 1800 UTC
Wind: from the NE (040 degrees) at 5 MPH (4 KT):0
Visibility: greater than 7 mile(s):0
Sky conditions: mostly cloudy
Weather: showers in the vicinity; Towering cumulus clouds observed
Temperature: 86 F (30 C)
Heat index: 95.0 F (35.0 C):1
Dew Point: 75 F (24 C)
Relative Humidity: 70%
Pressure (altimeter): 29.83 in. Hg (1010 hPa)
ob: SBMN 241800Z 04004KT 9999 VCSH BKN018 FEW025TCU 30/24 Q1010
cycle: 18

Station Type Date Time Source
SBMN TAF 2021/02/24 18:27 UTC NOAA

TAF TAF SBMN 241500Z 2418/2506 07004KT 8000 SCT020 FEW025TCU TX30/2418Z TN26/2503Z
RMK PEA

Example: see airport list